sensor_id;sensor_type;location;lat;lon;timestamp;pressure;altitude;pressure_sealevel;temperature;humidity
18678;BME280;9469;51.114;13.914;2022-07-19T00:03:04;99278.84;;;18.40;78.74
18678;BME280;9469;51.114;13.914;2022-07-19T00:08:12;99275.94;;;18.33;78.63
18678;BME280;9469;51.114;13.914;2022-07-19T00:13:17;99284.94;;;18.25;78.80
18678;BME280;9469;51.114;13.914;2022-07-19T00:18:23;99284.94;;;18.25;78.21
18678;BME280;9469;51.114;13.914;2022-07-19T00:23:31;99290.75;;;18.39;77.51
18678;BME280;9469;51.114;13.914;2022-07-19T00:28:36;99286.94;;;18.28;77.72
18678;BME280;9469;51.114;13.914;2022-07-19T00:33:41;99281.31;;;18.33;78.75
18678;BME280;9469;51.114;13.914;2022-07-19T00:38:48;99281.88;;;18.14;79.31
18678;BME280;9469;51.114;13.914;2022-07-19T00:43:53;99279.50;;;18.01;78.97
18678;BME280;9469;51.114;13.914;2022-07-19T00:48:59;99281.50;;;17.91;79.25
18678;BME280;9469;51.114;13.914;2022-07-19T00:54:16;99282.88;;;17.98;79.50
18678;BME280;9469;51.114;13.914;2022-07-19T00:59:38;99281.66;;;17.95;79.33
18678;BME280;9469;51.114;13.914;2022-07-19T01:04:45;99281.59;;;17.83;79.25
18678;BME280;9469;51.114;13.914;2022-07-19T01:10:00;99276.78;;;17.76;79.28
18678;BME280;9469;51.114;13.914;2022-07-19T01:15:13;99281.72;;;17.74;79.93
18678;BME280;9469;51.114;13.914;2022-07-19T01:20:19;99286.84;;;17.67;79.79
18678;BME280;9469;51.114;13.914;2022-07-19T01:25:36;99285.94;;;17.63;79.86
18678;BME280;9469;51.114;13.914;2022-07-19T01:30:41;99284.78;;;17.52;80.02
18678;BME280;9469;51.114;13.914;2022-07-19T01:35:47;99285.34;;;17.37;80.37
18678;BME280;9469;51.114;13.914;2022-07-19T01:40:57;99278.69;;;17.43;80.10
18678;BME280;9469;51.114;13.914;2022-07-19T01:46:03;99270.38;;;17.48;80.12
18678;BME280;9469;51.114;13.914;2022-07-19T01:51:08;99269.44;;;17.32;80.51
18678;BME280;9469;51.114;13.914;2022-07-19T01:56:18;99256.50;;;17.26;80.58
18678;BME280;9469;51.114;13.914;2022-07-19T02:01:24;99269.63;;;17.48;79.94
18678;BME280;9469;51.114;13.914;2022-07-19T02:06:29;99261.97;;;17.17;80.44
18678;BME280;9469;51.114;13.914;2022-07-19T02:11:37;99256.28;;;17.18;80.49
18678;BME280;9469;51.114;13.914;2022-07-19T02:16:44;99270.28;;;17.45;80.26
18678;BME280;9469;51.114;13.914;2022-07-19T02:21:52;99264.88;;;17.45;80.23
18678;BME280;9469;51.114;13.914;2022-07-19T02:26:59;99260.69;;;17.35;80.78
18678;BME280;9469;51.114;13.914;2022-07-19T02:32:05;99256.84;;;17.24;81.25
18678;BME280;9469;51.114;13.914;2022-07-19T02:37:11;99257.22;;;17.02;82.27
18678;BME280;9469;51.114;13.914;2022-07-19T02:42:19;99261.00;;;17.01;82.30
18678;BME280;9469;51.114;13.914;2022-07-19T02:47:24;99259.19;;;16.93;82.50
18678;BME280;9469;51.114;13.914;2022-07-19T02:52:29;99248.94;;;17.07;82.39
18678;BME280;9469;51.114;13.914;2022-07-19T02:57:37;99250.50;;;17.08;82.07
18678;BME280;9469;51.114;13.914;2022-07-19T03:02:42;99247.63;;;17.13;82.07
18678;BME280;9469;51.114;13.914;2022-07-19T03:07:47;99260.94;;;16.89;82.58
18678;BME280;9469;51.114;13.914;2022-07-19T03:12:54;99257.75;;;16.95;82.39
18678;BME280;9469;51.114;13.914;2022-07-19T03:17:59;99254.19;;;16.83;82.17
18678;BME280;9469;51.114;13.914;2022-07-19T03:23:04;99264.47;;;17.01;81.94
18678;BME280;9469;51.114;13.914;2022-07-19T03:28:12;99261.41;;;17.11;81.25
18678;BME280;9469;51.114;13.914;2022-07-19T03:33:17;99264.03;;;16.99;81.44
18678;BME280;9469;51.114;13.914;2022-07-19T03:38:23;99258.13;;;17.06;81.27
18678;BME280;9469;51.114;13.914;2022-07-19T03:43:30;99255.94;;;17.20;80.88
18678;BME280;9469;51.114;13.914;2022-07-19T03:48:37;99264.06;;;17.32;80.52
18678;BME280;9469;51.114;13.914;2022-07-19T03:53:42;99271.47;;;17.35;80.47
18678;BME280;9469;51.114;13.914;2022-07-19T03:58:51;99266.16;;;17.27;80.95
18678;BME280;9469;51.114;13.914;2022-07-19T04:03:56;99272.06;;;17.41;80.60
18678;BME280;9469;51.114;13.914;2022-07-19T04:09:01;99271.59;;;17.39;80.77
18678;BME280;9469;51.114;13.914;2022-07-19T04:14:12;99272.09;;;17.53;80.23
18678;BME280;9469;51.114;13.914;2022-07-19T04:19:20;99289.13;;;17.77;79.88
18678;BME280;9469;51.114;13.914;2022-07-19T04:24:25;99277.56;;;17.77;79.72
18678;BME280;9469;51.114;13.914;2022-07-19T04:29:33;99273.81;;;18.02;79.04
18678;BME280;9469;51.114;13.914;2022-07-19T04:34:38;99271.66;;;18.32;79.00
18678;BME280;9469;51.114;13.914;2022-07-19T04:39:44;99266.63;;;18.54;78.63
18678;BME280;9469;51.114;13.914;2022-07-19T04:44:55;99264.88;;;18.86;78.90
18678;BME280;9469;51.114;13.914;2022-07-19T04:50:05;99257.34;;;19.04;76.70
18678;BME280;9469;51.114;13.914;2022-07-19T04:55:11;99253.50;;;19.32;75.49
18678;BME280;9469;51.114;13.914;2022-07-19T05:00:19;99263.97;;;19.62;73.53
18678;BME280;9469;51.114;13.914;2022-07-19T05:05:25;99269.91;;;20.45;73.00
18678;BME280;9469;51.114;13.914;2022-07-19T05:10:33;99271.53;;;20.65;70.39
18678;BME280;9469;51.114;13.914;2022-07-19T05:15:41;99270.84;;;20.68;69.67
18678;BME280;9469;51.114;13.914;2022-07-19T05:20:46;99249.16;;;21.03;68.50
18678;BME280;9469;51.114;13.914;2022-07-19T05:25:56;99258.78;;;21.81;67.32
18678;BME280;9469;51.114;13.914;2022-07-19T05:31:12;99247.63;;;21.82;65.91
18678;BME280;9469;51.114;13.914;2022-07-19T05:36:21;99250.22;;;22.73;65.05
18678;BME280;9469;51.114;13.914;2022-07-19T05:41:27;99246.75;;;23.06;64.52
18678;BME280;9469;51.114;13.914;2022-07-19T05:46:36;99240.94;;;23.37;62.83
18678;BME280;9469;51.114;13.914;2022-07-19T05:51:44;99248.28;;;25.50;59.69
18678;BME280;9469;51.114;13.914;2022-07-19T05:56:50;99240.16;;;26.10;58.66
18678;BME280;9469;51.114;13.914;2022-07-19T06:02:00;99236.19;;;26.68;57.73
18678;BME280;9469;51.114;13.914;2022-07-19T06:07:06;99242.09;;;27.56;56.26
18678;BME280;9469;51.114;13.914;2022-07-19T06:12:11;99239.44;;;27.97;54.74
18678;BME280;9469;51.114;13.914;2022-07-19T06:17:20;99246.50;;;27.29;54.68
18678;BME280;9469;51.114;13.914;2022-07-19T06:22:29;99238.88;;;28.64;52.69
18678;BME280;9469;51.114;13.914;2022-07-19T06:27:35;99238.00;;;30.38;47.55
18678;BME280;9469;51.114;13.914;2022-07-19T06:32:43;99255.13;;;31.63;45.91
18678;BME280;9469;51.114;13.914;2022-07-19T06:37:48;99256.00;;;28.72;49.72
18678;BME280;9469;51.114;13.914;2022-07-19T06:42:53;99246.56;;;29.06;48.55
18678;BME280;9469;51.114;13.914;2022-07-19T06:48:01;99246.19;;;32.97;43.61
18678;BME280;9469;51.114;13.914;2022-07-19T06:53:07;99244.13;;;34.40;41.86
18678;BME280;9469;51.114;13.914;2022-07-19T06:58:12;99243.34;;;34.74;42.05
18678;BME280;9469;51.114;13.914;2022-07-19T07:03:22;99243.00;;;34.03;41.51
18678;BME280;9469;51.114;13.914;2022-07-19T07:08:28;99233.44;;;35.07;40.73
18678;BME280;9469;51.114;13.914;2022-07-19T07:13:38;99234.53;;;34.32;41.49
18678;BME280;9469;51.114;13.914;2022-07-19T07:18:46;99244.75;;;34.44;41.59
18678;BME280;9469;51.114;13.914;2022-07-19T07:23:52;99243.00;;;33.65;41.77
18678;BME280;9469;51.114;13.914;2022-07-19T07:28:57;99237.78;;;32.15;43.33
18678;BME280;9469;51.114;13.914;2022-07-19T07:34:05;99225.66;;;32.12;44.03
18678;BME280;9469;51.114;13.914;2022-07-19T07:39:11;99231.06;;;31.12;45.02
18678;BME280;9469;51.114;13.914;2022-07-19T07:44:16;99228.69;;;32.75;43.31
18678;BME280;9469;51.114;13.914;2022-07-19T07:49:24;99232.28;;;31.99;43.22
18678;BME280;9469;51.114;13.914;2022-07-19T07:54:33;99232.28;;;31.99;43.99
18678;BME280;9469;51.114;13.914;2022-07-19T08:00:04;99228.50;;;31.05;45.27
18678;BME280;9469;51.114;13.914;2022-07-19T08:05:20;99219.56;;;31.37;45.03
18678;BME280;9469;51.114;13.914;2022-07-19T08:10:28;99232.91;;;31.18;45.14
18678;BME280;9469;51.114;13.914;2022-07-19T08:15:34;99224.63;;;32.22;44.62
18678;BME280;9469;51.114;13.914;2022-07-19T08:20:42;99220.75;;;31.87;44.68
18678;BME280;9469;51.114;13.914;2022-07-19T08:25:47;99216.72;;;32.53;43.67
18678;BME280;9469;51.114;13.914;2022-07-19T08:30:52;99216.81;;;32.05;44.82
18678;BME280;9469;51.114;13.914;2022-07-19T08:36:16;99222.91;;;32.12;44.41
18678;BME280;9469;51.114;13.914;2022-07-19T08:41:21;99208.97;;;32.19;44.71
18678;BME280;9469;51.114;13.914;2022-07-19T08:46:26;99206.00;;;32.42;43.55
18678;BME280;9469;51.114;13.914;2022-07-19T08:51:35;99210.09;;;32.06;43.73
18678;BME280;9469;51.114;13.914;2022-07-19T08:56:40;99205.75;;;32.21;43.30
18678;BME280;9469;51.114;13.914;2022-07-19T09:01:58;99207.41;;;33.04;42.61
18678;BME280;9469;51.114;13.914;2022-07-19T09:07:06;99204.25;;;32.77;42.58
18678;BME280;9469;51.114;13.914;2022-07-19T09:12:13;99200.16;;;32.69;42.62
18678;BME280;9469;51.114;13.914;2022-07-19T09:17:18;99200.16;;;32.69;41.56
18678;BME280;9469;51.114;13.914;2022-07-19T09:22:27;99205.09;;;32.45;42.42
18678;BME280;9469;51.114;13.914;2022-07-19T09:27:35;99193.34;;;32.86;42.14
18678;BME280;9469;51.114;13.914;2022-07-19T09:32:45;99191.41;;;32.58;41.40
18678;BME280;9469;51.114;13.914;2022-07-19T09:38:13;99186.25;;;32.60;41.39
18678;BME280;9469;51.114;13.914;2022-07-19T09:43:22;99198.41;;;33.04;40.90
18678;BME280;9469;51.114;13.914;2022-07-19T09:48:50;99181.91;;;32.88;40.19
18678;BME280;9469;51.114;13.914;2022-07-19T09:54:04;99193.34;;;33.40;38.88
18678;BME280;9469;51.114;13.914;2022-07-19T09:59:10;99196.22;;;32.70;39.27
18678;BME280;9469;51.114;13.914;2022-07-19T10:04:20;99189.16;;;33.61;38.82
18678;BME280;9469;51.114;13.914;2022-07-19T10:09:28;99183.19;;;33.75;38.47
18678;BME280;9469;51.114;13.914;2022-07-19T10:14:37;99176.50;;;33.97;38.13
18678;BME280;9469;51.114;13.914;2022-07-19T10:19:44;99169.25;;;33.91;38.78
18678;BME280;9469;51.114;13.914;2022-07-19T10:24:54;99165.78;;;34.34;38.28
18678;BME280;9469;51.114;13.914;2022-07-19T10:30:16;99167.66;;;34.37;38.67
18678;BME280;9469;51.114;13.914;2022-07-19T10:35:27;99167.91;;;33.95;38.38
18678;BME280;9469;51.114;13.914;2022-07-19T10:40:46;99158.84;;;34.08;37.86
18678;BME280;9469;51.114;13.914;2022-07-19T10:46:07;99164.34;;;34.42;37.99
18678;BME280;9469;51.114;13.914;2022-07-19T10:51:27;99149.94;;;34.25;38.13
18678;BME280;9469;51.114;13.914;2022-07-19T10:56:39;99157.50;;;34.12;37.94
18678;BME280;9469;51.114;13.914;2022-07-19T11:01:57;99150.72;;;34.47;37.66
18678;BME280;9469;51.114;13.914;2022-07-19T11:07:24;99152.97;;;34.61;37.02
18678;BME280;9469;51.114;13.914;2022-07-19T11:12:34;99144.81;;;34.80;37.27
18678;BME280;9469;51.114;13.914;2022-07-19T11:17:42;99133.78;;;35.19;36.96
18678;BME280;9469;51.114;13.914;2022-07-19T11:22:55;99118.53;;;35.06;36.25
18678;BME280;9469;51.114;13.914;2022-07-19T11:28:05;99120.41;;;35.09;37.32
18678;BME280;9469;51.114;13.914;2022-07-19T11:33:16;99117.94;;;34.80;37.58
18678;BME280;9469;51.114;13.914;2022-07-19T11:38:21;99112.44;;;35.20;37.19
18678;BME280;9469;51.114;13.914;2022-07-19T11:43:29;99112.19;;;35.36;37.32
18678;BME280;9469;51.114;13.914;2022-07-19T11:48:34;99111.59;;;35.41;37.12
18678;BME280;9469;51.114;13.914;2022-07-19T11:53:41;99107.25;;;35.31;37.21
18678;BME280;9469;51.114;13.914;2022-07-19T11:58:49;99105.56;;;35.33;36.78
18678;BME280;9469;51.114;13.914;2022-07-19T12:03:56;99107.72;;;35.29;36.88
18678;BME280;9469;51.114;13.914;2022-07-19T12:09:05;99111.03;;;35.55;37.47
18678;BME280;9469;51.114;13.914;2022-07-19T12:14:21;99098.56;;;35.02;37.58
18678;BME280;9469;51.114;13.914;2022-07-19T12:19:29;99095.41;;;35.30;36.60
18678;BME280;9469;51.114;13.914;2022-07-19T12:24:43;99096.63;;;34.81;37.26
18678;BME280;9469;51.114;13.914;2022-07-19T12:29:51;99083.47;;;34.94;37.14
18678;BME280;9469;51.114;13.914;2022-07-19T12:34:58;99083.69;;;35.66;37.06
18678;BME280;9469;51.114;13.914;2022-07-19T12:40:06;99075.69;;;35.50;37.24
18678;BME280;9469;51.114;13.914;2022-07-19T12:45:16;99074.00;;;35.62;36.67
18678;BME280;9469;51.114;13.914;2022-07-19T12:50:22;99053.56;;;35.68;37.20
18678;BME280;9469;51.114;13.914;2022-07-19T12:55:29;99059.44;;;35.97;37.47
18678;BME280;9469;51.114;13.914;2022-07-19T13:00:38;99047.06;;;35.53;36.07
18678;BME280;9469;51.114;13.914;2022-07-19T13:05:43;99046.53;;;35.09;36.69
18678;BME280;9469;51.114;13.914;2022-07-19T13:10:48;99031.56;;;35.65;36.61
18678;BME280;9469;51.114;13.914;2022-07-19T13:15:56;99038.34;;;35.64;36.48
18678;BME280;9469;51.114;13.914;2022-07-19T13:21:01;99036.00;;;35.89;36.52
18678;BME280;9469;51.114;13.914;2022-07-19T13:26:06;99026.81;;;36.02;36.05
18678;BME280;9469;51.114;13.914;2022-07-19T13:31:14;99028.34;;;35.84;36.86
18678;BME280;9469;51.114;13.914;2022-07-19T13:36:19;99031.00;;;35.03;36.51
18678;BME280;9469;51.114;13.914;2022-07-19T13:41:24;99027.72;;;35.89;36.53
18678;BME280;9469;51.114;13.914;2022-07-19T13:46:35;99024.16;;;35.44;36.37
18678;BME280;9469;51.114;13.914;2022-07-19T13:51:40;99019.41;;;35.98;36.57
18678;BME280;9469;51.114;13.914;2022-07-19T13:56:45;99012.97;;;35.74;36.39
18678;BME280;9469;51.114;13.914;2022-07-19T14:01:53;99013.72;;;34.99;36.87
18678;BME280;9469;51.114;13.914;2022-07-19T14:06:59;99015.34;;;35.09;36.41
18678;BME280;9469;51.114;13.914;2022-07-19T14:12:04;99009.50;;;35.07;36.55
18678;BME280;9469;51.114;13.914;2022-07-19T14:17:12;99005.88;;;35.46;37.08
18678;BME280;9469;51.114;13.914;2022-07-19T14:22:18;99004.03;;;35.43;36.17
18678;BME280;9469;51.114;13.914;2022-07-19T14:27:24;98989.91;;;35.77;36.08
18678;BME280;9469;51.114;13.914;2022-07-19T14:32:32;98998.19;;;35.95;35.87
18678;BME280;9469;51.114;13.914;2022-07-19T14:37:37;98993.38;;;36.14;36.55
18678;BME280;9469;51.114;13.914;2022-07-19T14:42:42;98995.75;;;35.70;36.27
18678;BME280;9469;51.114;13.914;2022-07-19T14:47:50;98989.59;;;35.93;36.56
18678;BME280;9469;51.114;13.914;2022-07-19T14:52:57;98986.22;;;35.71;36.30
18678;BME280;9469;51.114;13.914;2022-07-19T14:58:02;98982.97;;;35.91;36.50
18678;BME280;9469;51.114;13.914;2022-07-19T15:03:10;98986.03;;;35.20;36.48
18678;BME280;9469;51.114;13.914;2022-07-19T15:08:16;98978.22;;;35.37;36.91
18678;BME280;9469;51.114;13.914;2022-07-19T15:13:21;98972.22;;;35.29;37.29
18678;BME280;9469;51.114;13.914;2022-07-19T15:18:29;98974.09;;;35.51;37.12
18678;BME280;9469;51.114;13.914;2022-07-19T15:23:34;98963.03;;;35.60;36.40
18678;BME280;9469;51.114;13.914;2022-07-19T15:28:43;98960.25;;;35.33;36.28
18678;BME280;9469;51.114;13.914;2022-07-19T15:33:51;98955.78;;;35.53;36.15
18678;BME280;9469;51.114;13.914;2022-07-19T15:38:56;98944.72;;;35.53;36.20
18678;BME280;9469;51.114;13.914;2022-07-19T15:44:01;98950.88;;;35.66;36.55
18678;BME280;9469;51.114;13.914;2022-07-19T15:49:09;98960.72;;;35.49;36.76
18678;BME280;9469;51.114;13.914;2022-07-19T15:54:14;98950.84;;;35.39;36.24
18678;BME280;9469;51.114;13.914;2022-07-19T15:59:19;98950.56;;;35.64;36.58
18678;BME280;9469;51.114;13.914;2022-07-19T16:04:27;98951.31;;;35.28;37.31
18678;BME280;9469;51.114;13.914;2022-07-19T16:09:32;98947.63;;;35.31;37.05
18678;BME280;9469;51.114;13.914;2022-07-19T16:14:37;98947.06;;;34.88;36.70
18678;BME280;9469;51.114;13.914;2022-07-19T16:19:46;98941.63;;;35.15;36.84
18678;BME280;9469;51.114;13.914;2022-07-19T16:24:52;98938.72;;;35.37;36.46
18678;BME280;9469;51.114;13.914;2022-07-19T16:29:58;98927.41;;;34.86;36.27
18678;BME280;9469;51.114;13.914;2022-07-19T16:35:07;98922.50;;;34.72;36.21
18678;BME280;9469;51.114;13.914;2022-07-19T16:40:13;98928.91;;;34.59;36.77
18678;BME280;9469;51.114;13.914;2022-07-19T16:45:21;98932.69;;;35.02;36.69
18678;BME280;9469;51.114;13.914;2022-07-19T16:50:29;98936.72;;;35.28;37.21
18678;BME280;9469;51.114;13.914;2022-07-19T16:55:34;98932.28;;;34.24;38.03
18678;BME280;9469;51.114;13.914;2022-07-19T17:00:40;98939.94;;;33.98;37.89
18678;BME280;9469;51.114;13.914;2022-07-19T17:05:47;98931.72;;;34.07;38.04
18678;BME280;9469;51.114;13.914;2022-07-19T17:10:52;98933.94;;;34.21;38.13
18678;BME280;9469;51.114;13.914;2022-07-19T17:15:57;98935.63;;;33.97;38.33
18678;BME280;9469;51.114;13.914;2022-07-19T17:21:05;98936.34;;;33.88;38.01
18678;BME280;9469;51.114;13.914;2022-07-19T17:26:10;98931.78;;;33.94;38.38
18678;BME280;9469;51.114;13.914;2022-07-19T17:31:17;98929.53;;;34.02;37.99
18678;BME280;9469;51.114;13.914;2022-07-19T17:36:25;98931.78;;;33.94;38.66
18678;BME280;9469;51.114;13.914;2022-07-19T17:41:30;98938.97;;;33.70;39.39
18678;BME280;9469;51.114;13.914;2022-07-19T17:46:35;98938.56;;;33.38;41.19
18678;BME280;9469;51.114;13.914;2022-07-19T17:51:43;98949.13;;;33.17;40.96
18678;BME280;9469;51.114;13.914;2022-07-19T17:56:48;98955.22;;;32.87;42.58
18678;BME280;9469;51.114;13.914;2022-07-19T18:01:52;98955.66;;;32.73;42.63
18678;BME280;9469;51.114;13.914;2022-07-19T18:07:01;98955.13;;;32.53;43.27
18678;BME280;9469;51.114;13.914;2022-07-19T18:12:08;98948.50;;;32.38;43.52
18678;BME280;9469;51.114;13.914;2022-07-19T18:17:13;98953.00;;;32.07;43.89
18678;BME280;9469;51.114;13.914;2022-07-19T18:22:20;98955.97;;;31.83;43.56
18678;BME280;9469;51.114;13.914;2022-07-19T18:27:26;98954.72;;;31.72;44.61
18678;BME280;9469;51.114;13.914;2022-07-19T18:32:30;98958.31;;;31.40;44.96
18678;BME280;9469;51.114;13.914;2022-07-19T18:37:39;98965.78;;;31.40;44.80
18678;BME280;9469;51.114;13.914;2022-07-19T18:42:44;98975.88;;;30.82;45.71
18678;BME280;9469;51.114;13.914;2022-07-19T18:47:51;98969.50;;;30.53;46.33
18678;BME280;9469;51.114;13.914;2022-07-19T18:52:58;98972.91;;;30.40;46.75
18678;BME280;9469;51.114;13.914;2022-07-19T18:58:03;98982.69;;;30.22;48.23
18678;BME280;9469;51.114;13.914;2022-07-19T19:03:08;98985.59;;;29.95;49.10
18678;BME280;9469;51.114;13.914;2022-07-19T19:08:16;98981.25;;;29.78;49.65
18678;BME280;9469;51.114;13.914;2022-07-19T19:13:21;98994.03;;;29.85;50.93
18678;BME280;9469;51.114;13.914;2022-07-19T19:18:26;98986.44;;;29.49;51.84
18678;BME280;9469;51.114;13.914;2022-07-19T19:23:38;98997.50;;;28.96;52.90
18678;BME280;9469;51.114;13.914;2022-07-19T19:28:46;98995.94;;;28.72;52.50
18678;BME280;9469;51.114;13.914;2022-07-19T19:33:52;99005.06;;;28.62;51.72
18678;BME280;9469;51.114;13.914;2022-07-19T19:38:59;99000.81;;;28.57;52.88
18678;BME280;9469;51.114;13.914;2022-07-19T19:44:05;99002.47;;;28.21;53.34
18678;BME280;9469;51.114;13.914;2022-07-19T19:49:12;99000.25;;;28.42;52.85
18678;BME280;9469;51.114;13.914;2022-07-19T19:54:20;99001.75;;;28.17;54.12
18678;BME280;9469;51.114;13.914;2022-07-19T19:59:25;99001.31;;;27.85;54.38
18678;BME280;9469;51.114;13.914;2022-07-19T20:04:31;98999.41;;;27.82;54.68
18678;BME280;9469;51.114;13.914;2022-07-19T20:09:39;99001.16;;;27.61;54.99
18678;BME280;9469;51.114;13.914;2022-07-19T20:14:44;98998.28;;;27.35;55.46
18678;BME280;9469;51.114;13.914;2022-07-19T20:19:49;99002.97;;;27.34;55.83
18678;BME280;9469;51.114;13.914;2022-07-19T20:24:58;99014.09;;;27.13;55.77
18678;BME280;9469;51.114;13.914;2022-07-19T20:30:03;99011.59;;;26.78;56.73
18678;BME280;9469;51.114;13.914;2022-07-19T20:35:09;99011.34;;;26.55;57.63
18678;BME280;9469;51.114;13.914;2022-07-19T20:40:16;98995.22;;;26.81;56.76
18678;BME280;9469;51.114;13.914;2022-07-19T20:45:21;99012.22;;;26.30;58.92
18678;BME280;9469;51.114;13.914;2022-07-19T20:50:27;99010.69;;;26.29;58.73
18678;BME280;9469;51.114;13.914;2022-07-19T20:55:35;99007.66;;;25.99;59.72
18678;BME280;9469;51.114;13.914;2022-07-19T21:00:41;99015.56;;;25.58;60.23
18678;BME280;9469;51.114;13.914;2022-07-19T21:05:46;99012.06;;;25.58;59.63
18678;BME280;9469;51.114;13.914;2022-07-19T21:10:53;99010.50;;;25.36;59.93
18678;BME280;9469;51.114;13.914;2022-07-19T21:16:00;99012.84;;;25.62;59.98
18678;BME280;9469;51.114;13.914;2022-07-19T21:21:05;99011.25;;;25.68;59.67
18678;BME280;9469;51.114;13.914;2022-07-19T21:26:13;99012.84;;;25.41;60.24
18678;BME280;9469;51.114;13.914;2022-07-19T21:31:18;99018.28;;;25.27;60.17
18678;BME280;9469;51.114;13.914;2022-07-19T21:36:23;99021.78;;;24.96;61.75
18678;BME280;9469;51.114;13.914;2022-07-19T21:41:31;99015.97;;;25.11;60.91
18678;BME280;9469;51.114;13.914;2022-07-19T21:46:36;99013.22;;;24.97;61.33
18678;BME280;9469;51.114;13.914;2022-07-19T21:51:41;99033.38;;;24.64;63.07
18678;BME280;9469;51.114;13.914;2022-07-19T21:56:49;99026.41;;;24.74;62.93
18678;BME280;9469;51.114;13.914;2022-07-19T22:01:54;99027.53;;;24.62;63.00
18678;BME280;9469;51.114;13.914;2022-07-19T22:06:59;99033.66;;;24.38;63.86
18678;BME280;9469;51.114;13.914;2022-07-19T22:12:07;99041.81;;;24.31;63.21
18678;BME280;9469;51.114;13.914;2022-07-19T22:17:12;99039.53;;;24.40;63.44
18678;BME280;9469;51.114;13.914;2022-07-19T22:22:17;99047.97;;;24.21;64.32
18678;BME280;9469;51.114;13.914;2022-07-19T22:27:25;99038.13;;;23.99;64.81
18678;BME280;9469;51.114;13.914;2022-07-19T22:32:30;99040.53;;;24.11;64.88
18678;BME280;9469;51.114;13.914;2022-07-19T22:37:35;99038.22;;;24.06;65.86
18678;BME280;9469;51.114;13.914;2022-07-19T22:42:43;99042.66;;;23.74;66.01
18678;BME280;9469;51.114;13.914;2022-07-19T22:47:48;99044.88;;;23.61;66.17
18678;BME280;9469;51.114;13.914;2022-07-19T22:52:53;99045.56;;;23.47;66.08
18678;BME280;9469;51.114;13.914;2022-07-19T22:58:01;99046.75;;;23.46;66.36
18678;BME280;9469;51.114;13.914;2022-07-19T23:03:06;99045.53;;;23.40;67.25
18678;BME280;9469;51.114;13.914;2022-07-19T23:08:11;99041.53;;;23.31;68.54
18678;BME280;9469;51.114;13.914;2022-07-19T23:13:19;99048.91;;;23.30;66.87
18678;BME280;9469;51.114;13.914;2022-07-19T23:18:24;99049.88;;;23.08;68.15
18678;BME280;9469;51.114;13.914;2022-07-19T23:23:29;99038.22;;;23.04;69.29
18678;BME280;9469;51.114;13.914;2022-07-19T23:28:38;99039.75;;;23.02;68.42
18678;BME280;9469;51.114;13.914;2022-07-19T23:33:43;99040.38;;;22.51;69.99
18678;BME280;9469;51.114;13.914;2022-07-19T23:38:48;99052.94;;;22.66;69.40
18678;BME280;9469;51.114;13.914;2022-07-19T23:43:56;99046.59;;;22.55;68.87
18678;BME280;9469;51.114;13.914;2022-07-19T23:49:01;99048.13;;;22.53;68.99
18678;BME280;9469;51.114;13.914;2022-07-19T23:54:06;99046.41;;;22.38;69.04
18678;BME280;9469;51.114;13.914;2022-07-19T23:59:14;99037.97;;;22.46;71.43
